Time;durP1;ratioP1;P1;durP2;ratioP2;P2;SDS_P1;SDS_P2;PMS_P1;PMS_P2;Temp;Humidity;BMP_temperature;BMP_pressure;BME280_temperature;BME280_humidity;BME280_pressure;Samples;Min_cycle;Max_cycle;Signal;HPM_P1;HPM_P2
2021/10/25 00:01:29;;;;;;;;;47.75;37.25;;;;;;;;6296254;22;45797;-79
2021/10/25 00:23:13;;;;;;;;;41.50;36.00;;;;;;;;6296671;22;45801;-79
2021/10/25 00:25:38;;;;;;;;;36.33;29.33;;;;;;;;6280345;22;45458;-80
2021/10/25 00:33:14;;;;;;;;;38.50;30.25;;;;;;;;6276041;22;46542;-81
2021/10/25 00:35:42;;;;;;;;;46.25;34.25;;;;;;;;6264146;22;45405;-79
2021/10/25 00:38:08;;;;;;;;;42.00;29.50;;;;;;;;6262181;22;45632;-81
2021/10/25 00:40:34;;;;;;;;;32.75;27.75;;;;;;;;6262778;22;44872;-81
2021/10/25 00:43:01;;;;;;;;;26.00;22.50;;;;;;;;6261689;22;47874;-82
2021/10/25 00:52:06;;;;;;;;;19.50;18.75;;;;;;;;6079853;23;46085;-81
2021/10/25 00:54:52;;;;;;;;;30.25;26.50;;;;;;;;6078896;23;45514;-80
2021/10/25 00:57:17;;;;;;;;;30.50;29.50;;;;;;;;6079743;23;46115;-80
2021/10/25 00:59:56;;;;;;;;;;;;;;;;;;;;;
2021/10/25 01:08:57;;;;;;;;;29.50;24.75;;;;;;;;5936524;23;45473;-81
2021/10/25 01:11:23;;;;;;;;;34.75;25.50;;;;;;;;5937468;23;45417;-80
2021/10/25 01:13:48;;;;;;;;;29.25;24.50;;;;;;;;5937194;23;45474;-80
2021/10/25 01:16:13;;;;;;;;;30.75;22.50;;;;;;;;5937200;23;46852;-80
2021/10/25 01:18:39;;;;;;;;;28.67;24.33;;;;;;;;5936871;23;45525;-80
2021/10/25 01:27:42;;;;;;;;;25.25;21.50;;;;;;;;5841287;24;45457;-80
2021/10/25 01:30:12;;;;;;;;;32.00;26.25;;;;;;;;5823778;24;45680;-80
2021/10/25 01:32:37;;;;;;;;;27.00;22.75;;;;;;;;5830202;24;45355;-80
2021/10/25 01:38:24;;;;;;;;;22.75;21.00;;;;;;;;5773011;24;46359;-81
2021/10/25 01:40:58;;;;;;;;;27.75;22.50;;;;;;;;5794731;24;45346;-80
2021/10/25 01:43:42;;;;;;;;;23.75;20.25;;;;;;;;5882951;24;45491;-80
2021/10/25 01:46:08;;;;;;;;;26.75;20.00;;;;;;;;6002284;23;45544;-79
2021/10/25 01:48:36;;;;;;;;;29.75;23.25;;;;;;;;6078099;23;46054;-80
2021/10/25 01:51:03;;;;;;;;;23.00;21.00;;;;;;;;6081425;23;45269;-81
2021/10/25 01:53:31;;;;;;;;;28.25;21.75;;;;;;;;6057905;23;45303;-81
2021/10/25 01:56:15;;;;;;;;;24.75;22.00;;;;;;;;6055309;23;45876;-80
2021/10/25 02:01:51;;;;;;;;;27.25;24.50;;;;;;;;6106681;23;45532;-78
2021/10/25 02:04:17;;;;;;;;;27.75;21.25;;;;;;;;6084084;23;45625;-78
2021/10/25 02:06:42;;;;;;;;;29.00;24.00;;;;;;;;6104750;23;45593;-78
2021/10/25 02:09:07;;;;;;;;;25.67;21.00;;;;;;;;6109275;23;46208;-78
2021/10/25 02:11:53;;;;;;;;;29.00;23.75;;;;;;;;6109873;23;45342;-78
2021/10/25 02:14:25;;;;;;;;;27.25;20.00;;;;;;;;6111837;23;45338;-77
2021/10/25 02:16:50;;;;;;;;;25.00;22.25;;;;;;;;6139985;23;45351;-77
2021/10/25 02:19:18;;;;;;;;;27.75;23.00;;;;;;;;6140179;23;46542;-78
2021/10/25 02:21:46;;;;;;;;;29.25;21.25;;;;;;;;6138633;23;46096;-78
2021/10/25 02:24:20;;;;;;;;;25.50;21.75;;;;;;;;6140035;23;45559;-77
2021/10/25 02:30:05;;;;;;;;;23.25;19.50;;;;;;;;6067975;23;46687;-80
2021/10/25 02:32:38;;;;;;;;;22.25;19.75;;;;;;;;6053911;23;45546;-77
2021/10/25 02:35:04;;;;;;;;;19.00;19.00;;;;;;;;6080239;23;45289;-78
2021/10/25 02:37:35;;;;;;;;;27.25;20.75;;;;;;;;6080799;23;45364;-78
2021/10/25 02:40:00;;;;;;;;;22.00;21.00;;;;;;;;6136257;23;45429;-78
2021/10/25 02:42:29;;;;;;;;;23.00;20.67;;;;;;;;6139177;23;45502;-78
2021/10/25 02:57:48;;;;;;;;;26.00;19.25;;;;;;;;6239993;22;46888;-79
2021/10/25 03:00:15;;;;;;;;;20.25;17.00;;;;;;;;6322027;22;46162;-78
2021/10/25 03:02:42;;;;;;;;;21.25;20.50;;;;;;;;6324076;22;45566;-78
2021/10/25 03:07:53;;;;;;;;;24.00;20.50;;;;;;;;6255615;22;45498;-78
2021/10/25 03:10:18;;;;;;;;;23.75;21.50;;;;;;;;6230290;22;45579;-78
2021/10/25 03:12:45;;;;;;;;;22.33;21.00;;;;;;;;6230197;22;47309;-79
2021/10/25 03:15:10;;;;;;;;;23.50;22.25;;;;;;;;6256348;22;45473;-78
2021/10/25 03:17:35;;;;;;;;;23.75;21.00;;;;;;;;6260328;22;45427;-78
2021/10/25 03:20:02;;;;;;;;;20.75;17.00;;;;;;;;6258507;22;45451;-78
2021/10/25 03:22:28;;;;;;;;;23.75;18.50;;;;;;;;6260566;22;45527;-78
2021/10/25 03:25:03;;;;;;;;;22.50;17.50;;;;;;;;6260274;22;45429;-78
2021/10/25 03:30:32;;;;;;;;;24.50;21.25;;;;;;;;6256747;22;45389;-77
2021/10/25 03:32:57;;;;;;;;;23.25;18.75;;;;;;;;6232657;22;48020;-78
2021/10/25 03:35:22;;;;;;;;;22.25;18.00;;;;;;;;6232037;22;45463;-78
2021/10/25 03:37:48;;;;;;;;;23.25;18.25;;;;;;;;6259958;22;45266;-78
2021/10/25 03:40:14;;;;;;;;;19.75;17.25;;;;;;;;6258503;22;45722;-79
2021/10/25 03:43:06;;;;;;;;;22.25;18.25;;;;;;;;6257760;22;46469;-79
2021/10/25 03:51:50;;;;;;;;;24.50;23.25;;;;;;;;6137955;23;45713;-78
2021/10/25 04:29:27;;;;;;;;;20.25;16.75;;;;;;;;5982209;23;45543;-79
2021/10/25 04:31:52;;;;;;;;;22.25;20.25;;;;;;;;5991942;23;45560;-81
2021/10/25 04:34:41;;;;;;;;;19.75;18.00;;;;;;;;5997662;23;45369;-80
2021/10/25 04:40:46;;;;;;;;;;;;;;;;;;;;;
2021/10/25 04:49:42;;;;;;;;;22.25;17.75;;;;;;;;5967965;23;45641;-79
2021/10/25 04:52:40;;;;;;;;;22.00;20.75;;;;;;;;5941290;23;48155;-78
2021/10/25 04:55:14;;;;;;;;;23.00;20.75;;;;;;;;5942165;23;45438;-80
2021/10/25 04:58:06;;;;;;;;;23.25;17.00;;;;;;;;5919213;23;44851;-79
2021/10/25 05:00:34;;;;;;;;;26.75;17.00;;;;;;;;5908795;24;45769;-80
2021/10/25 05:03:04;;;;;;;;;17.00;16.00;;;;;;;;5899932;24;45417;-77
2021/10/25 05:08:35;;;;;;;;;20.00;16.25;;;;;;;;5887810;24;45508;-77
2021/10/25 05:11:27;;;;;;;;;20.75;19.00;;;;;;;;5881311;24;45552;-78
2021/10/25 05:14:37;;;;;;;;;19.50;16.75;;;;;;;;5882660;24;45812;-77
2021/10/25 05:17:05;;;;;;;;;23.00;17.75;;;;;;;;5883652;24;45524;-78
2021/10/25 05:19:33;;;;;;;;;22.00;18.75;;;;;;;;5882795;24;45967;-78
2021/10/25 05:22:23;;;;;;;;;23.00;16.75;;;;;;;;5887890;23;45444;-77
2021/10/25 05:25:32;;;;;;;;;21.00;17.50;;;;;;;;6034484;23;45481;-78
2021/10/25 05:28:05;;;;;;;;;24.75;19.00;;;;;;;;6050803;23;45944;-77
2021/10/25 05:30:31;;;;;;;;;19.00;17.00;;;;;;;;6051437;23;45595;-78
2021/10/25 05:32:56;;;;;;;;;24.25;19.50;;;;;;;;6181919;22;45915;-78
2021/10/25 05:35:21;;;;;;;;;19.33;16.33;;;;;;;;6200626;22;46051;-77
2021/10/25 05:37:47;;;;;;;;;20.50;16.25;;;;;;;;6238828;22;45482;-77
2021/10/25 05:40:12;;;;;;;;;19.00;18.00;;;;;;;;6267197;22;45408;-78
2021/10/25 05:42:37;;;;;;;;;21.25;17.75;;;;;;;;6264379;22;45685;-77
2021/10/25 05:45:04;;;;;;;;;17.33;17.00;;;;;;;;6263362;22;45822;-77
2021/10/25 05:47:34;;;;;;;;;22.00;17.50;;;;;;;;6265907;22;45316;-77
2021/10/25 05:50:11;;;;;;;;;;;;;;;;;;;;;
2021/10/25 05:52:37;;;;;;;;;20.25;17.25;;;;;;;;6263459;22;71663;-76
2021/10/25 05:55:03;;;;;;;;;18.00;18.00;;;;;;;;6266769;22;46172;-76
2021/10/25 05:57:28;;;;;;;;;24.50;21.50;;;;;;;;6265421;22;45740;-78
2021/10/25 05:59:54;;;;;;;;;22.50;20.50;;;;;;;;6326859;22;45462;-76
2021/10/25 06:02:25;;;;;;;;;27.00;22.25;;;;;;;;6327024;22;45470;-76
2021/10/25 06:04:50;;;;;;;;;21.25;19.25;;;;;;;;6325181;22;46122;-76
2021/10/25 06:07:16;;;;;;;;;23.25;16.00;;;;;;;;6330619;22;45402;-77
2021/10/25 06:09:43;;;;;;;;;21.75;21.75;;;;;;;;6330087;22;45533;-78
2021/10/25 06:12:13;;;;;;;;;22.50;20.00;;;;;;;;6327648;22;45526;-76
2021/10/25 06:14:43;;;;;;;;;21.75;19.00;;;;;;;;6328557;22;46534;-79
2021/10/25 06:17:24;;;;;;;;;25.75;18.00;;;;;;;;6318132;22;45233;-76
2021/10/25 06:20:12;;;;;;;;;23.50;18.75;;;;;;;;6311975;22;46290;-77
2021/10/25 06:22:38;;;;;;;;;26.25;20.75;;;;;;;;6265064;22;45458;-77
2021/10/25 06:25:10;;;;;;;;;21.50;17.25;;;;;;;;6267083;22;46181;-77
2021/10/25 06:27:38;;;;;;;;;22.00;21.50;;;;;;;;6275402;22;45482;-77
2021/10/25 06:37:57;;;;;;;;;24.25;21.50;;;;;;;;6329892;22;45711;-90
2021/10/25 06:40:24;;;;;;;;;26.25;21.75;;;;;;;;6313531;22;45394;-91
2021/10/25 06:42:50;;;;;;;;;29.75;21.75;;;;;;;;6334584;22;45522;-90
2021/10/25 06:45:18;;;;;;;;;25.25;22.00;;;;;;;;6295682;22;45629;-77
2021/10/25 06:47:44;;;;;;;;;18.75;16.75;;;;;;;;6294505;22;46231;-77
2021/10/25 06:50:17;;;;;;;;;28.50;23.25;;;;;;;;6291914;22;45733;-77
2021/10/25 06:52:42;;;;;;;;;21.00;18.00;;;;;;;;6290907;22;45385;-77
2021/10/25 06:55:08;;;;;;;;;22.50;19.25;;;;;;;;6295126;22;45462;-77
2021/10/25 06:57:34;;;;;;;;;21.00;18.50;;;;;;;;6293803;22;45434;-77
2021/10/25 07:00:04;;;;;;;;;26.50;21.50;;;;;;;;6291291;22;45549;-78
2021/10/25 07:02:29;;;;;;;;;22.75;21.50;;;;;;;;6293972;22;45449;-78
2021/10/25 07:04:55;;;;;;;;;23.00;21.00;;;;;;;;6290206;22;45972;-77
2021/10/25 07:07:25;;;;;;;;;40.25;34.00;;;;;;;;6263149;22;45498;-77
2021/10/25 07:09:50;;;;;;;;;45.00;29.00;;;;;;;;6291006;22;45917;-78
2021/10/25 07:12:16;;;;;;;;;32.75;26.50;;;;;;;;6291000;22;45422;-78
2021/10/25 07:14:42;;;;;;;;;23.67;20.00;;;;;;;;6290168;22;45643;-78
2021/10/25 07:27:21;;;;;;;;;34.50;29.25;;;;;;;;6283863;22;45484;-80
2021/10/25 08:22:53;;;;;;;;;20.50;17.50;;;;;;;;6295318;22;45613;-79
2021/10/25 08:25:19;;;;;;;;;19.00;15.25;;;;;;;;6302930;22;45395;-78
2021/10/25 08:27:45;;;;;;;;;21.50;18.00;;;;;;;;6298466;22;45485;-78
2021/10/25 08:30:12;;;;;;;;;24.00;20.50;;;;;;;;6291815;22;46582;-78
2021/10/25 08:35:36;;;;;;;;;24.00;21.50;;;;;;;;6291575;22;45942;-79
2021/10/25 08:41:10;;;;;;;;;19.50;18.50;;;;;;;;6228058;22;46133;-78
2021/10/25 08:43:36;;;;;;;;;26.75;24.00;;;;;;;;6228549;22;45807;-78
2021/10/25 08:46:07;;;;;;;;;24.50;22.25;;;;;;;;6228844;22;45527;-79
2021/10/25 08:48:35;;;;;;;;;22.75;20.50;;;;;;;;6228933;22;45423;-79
2021/10/25 08:51:01;;;;;;;;;25.50;21.75;;;;;;;;6231222;22;45651;-78
2021/10/25 08:53:27;;;;;;;;;28.25;26.50;;;;;;;;6227618;22;46130;-78
2021/10/25 08:55:56;;;;;;;;;22.00;18.00;;;;;;;;6228910;22;46244;-78
2021/10/25 09:11:23;;;;;;;;;27.75;22.00;;;;;;;;5958822;23;45549;-79
2021/10/25 09:13:51;;;;;;;;;25.00;22.25;;;;;;;;5960729;23;45688;-79
2021/10/25 09:16:24;;;;;;;;;25.25;20.00;;;;;;;;5962251;23;45552;-78
2021/10/25 09:18:57;;;;;;;;;28.00;24.00;;;;;;;;6014087;23;45744;-79
2021/10/25 09:21:31;;;;;;;;;32.00;26.00;;;;;;;;6027951;23;45493;-78
2021/10/25 09:23:59;;;;;;;;;25.50;20.75;;;;;;;;6050062;23;45566;-79
2021/10/25 09:26:29;;;;;;;;;27.50;24.25;;;;;;;;6048021;23;46422;-79
2021/10/25 09:29:03;;;;;;;;;31.50;25.50;;;;;;;;6048391;23;45487;-79
2021/10/25 09:31:34;;;;;;;;;23.75;21.50;;;;;;;;6046111;23;45988;-78
2021/10/25 09:34:12;;;;;;;;;31.00;26.25;;;;;;;;6050468;23;45694;-79
2021/10/25 09:36:50;;;;;;;;;32.75;26.50;;;;;;;;6048016;23;46090;-78
2021/10/25 09:39:37;;;;;;;;;24.00;21.75;;;;;;;;6118178;23;45647;-79
2021/10/25 09:50:31;;;;;;;;;26.00;22.50;;;;;;;;6258959;22;45472;-79
2021/10/25 09:53:20;;;;;;;;;31.50;24.00;;;;;;;;6258158;22;45554;-78
2021/10/25 09:55:46;;;;;;;;;30.50;26.50;;;;;;;;6132883;23;45636;-78
2021/10/25 10:04:46;;;;;;;;;27.75;23.25;;;;;;;;6081265;23;45300;-78
2021/10/25 10:07:52;;;;;;;;;35.75;28.50;;;;;;;;6080647;23;48694;-79
2021/10/25 10:10:21;;;;;;;;;27.75;22.00;;;;;;;;6077078;23;45478;-79
2021/10/25 10:12:51;;;;;;;;;29.75;23.00;;;;;;;;6080517;23;45553;-79
2021/10/25 10:15:16;;;;;;;;;27.75;27.25;;;;;;;;6077497;23;45907;-80
2021/10/25 10:17:42;;;;;;;;;35.25;26.75;;;;;;;;6083702;23;45525;-80
2021/10/25 10:20:11;;;;;;;;;28.50;24.00;;;;;;;;6081442;23;45466;-78
2021/10/25 10:26:04;;;;;;;;;33.25;25.75;;;;;;;;6027806;23;45794;-80
2021/10/25 10:28:44;;;;;;;;;29.50;27.75;;;;;;;;6026067;23;46045;-80
2021/10/25 10:31:14;;;;;;;;;28.25;24.50;;;;;;;;6001862;23;46104;-80
2021/10/25 10:33:41;;;;;;;;;30.00;26.50;;;;;;;;6023915;23;45997;-80
2021/10/25 10:36:21;;;;;;;;;;;;;;;;;;;;;
2021/10/25 10:39:04;;;;;;;;;29.75;25.25;;;;;;;;6023265;23;74638;-78
2021/10/25 10:41:43;;;;;;;;;38.75;31.00;;;;;;;;6113812;23;45293;-78
2021/10/25 10:44:12;;;;;;;;;34.25;28.25;;;;;;;;6173095;23;45337;-77
2021/10/25 10:46:42;;;;;;;;;28.75;27.25;;;;;;;;6174382;23;45517;-78
2021/10/25 10:49:17;;;;;;;;;35.50;28.00;;;;;;;;6174119;23;45806;-78
2021/10/25 10:51:42;;;;;;;;;32.50;30.25;;;;;;;;6170044;23;45882;-78
2021/10/25 10:54:12;;;;;;;;;26.67;21.67;;;;;;;;6173356;23;45725;-78
2021/10/25 10:56:53;;;;;;;;;35.00;26.50;;;;;;;;6174953;23;45430;-78
2021/10/25 10:59:34;;;;;;;;;32.25;25.50;;;;;;;;6170871;23;46082;-77
2021/10/25 11:02:00;;;;;;;;;28.00;26.50;;;;;;;;6197270;22;45429;-78
2021/10/25 11:04:29;;;;;;;;;34.33;29.67;;;;;;;;6266190;22;45424;-78
2021/10/25 11:06:57;;;;;;;;;32.75;28.25;;;;;;;;6265282;22;45347;-78
2021/10/25 11:09:26;;;;;;;;;30.50;26.00;;;;;;;;6262626;22;46246;-78
2021/10/25 11:17:31;;;;;;;;;26.50;25.00;;;;;;;;6303381;22;45243;-93
2021/10/25 11:30:19;;;;;;;;;27.25;23.00;;;;;;;;6260235;22;45680;-77
2021/10/25 11:32:45;;;;;;;;;28.00;25.25;;;;;;;;6263405;22;45577;-77
2021/10/25 11:35:12;;;;;;;;;30.75;27.00;;;;;;;;6265393;22;45475;-77
2021/10/25 11:37:40;;;;;;;;;31.25;25.00;;;;;;;;6264313;22;46077;-77
2021/10/25 11:40:08;;;;;;;;;31.75;24.25;;;;;;;;6267795;22;45577;-77
2021/10/25 11:42:33;;;;;;;;;23.50;18.75;;;;;;;;6260655;22;45619;-76
2021/10/25 11:45:10;;;;;;;;;22.33;21.67;;;;;;;;6263996;22;45424;-77
2021/10/25 11:47:37;;;;;;;;;20.25;19.00;;;;;;;;6263979;22;45550;-77
2021/10/25 11:50:10;;;;;;;;;27.50;22.50;;;;;;;;6261106;22;45877;-77
2021/10/25 11:52:41;;;;;;;;;19.75;15.00;;;;;;;;6262039;22;45585;-78
2021/10/25 11:55:08;;;;;;;;;20.50;16.25;;;;;;;;6263074;22;44844;-77
2021/10/25 11:57:33;;;;;;;;;18.25;18.00;;;;;;;;6234862;22;45479;-77
2021/10/25 11:59:58;;;;;;;;;17.67;14.67;;;;;;;;6233760;22;47004;-77
2021/10/25 12:02:34;;;;;;;;;19.75;18.00;;;;;;;;6263574;22;45392;-78
2021/10/25 12:05:00;;;;;;;;;16.75;15.00;;;;;;;;6274724;22;45274;-77
2021/10/25 12:07:25;;;;;;;;;17.75;15.50;;;;;;;;6276253;22;45530;-77
2021/10/25 12:09:55;;;;;;;;;13.33;12.33;;;;;;;;6272242;22;45296;-77
2021/10/25 12:12:21;;;;;;;;;13.50;13.00;;;;;;;;6270923;22;45533;-77
2021/10/25 12:14:47;;;;;;;;;15.25;14.50;;;;;;;;6267420;22;45487;-77
2021/10/25 12:17:19;;;;;;;;;18.50;17.50;;;;;;;;6266151;22;45520;-77
2021/10/25 12:19:49;;;;;;;;;18.25;15.50;;;;;;;;6266130;22;45396;-77
2021/10/25 12:22:17;;;;;;;;;20.75;15.00;;;;;;;;6266732;22;45423;-77
2021/10/25 12:24:44;;;;;;;;;17.00;17.00;;;;;;;;6264804;22;45332;-77
2021/10/25 12:27:21;;;;;;;;;17.75;16.25;;;;;;;;6265915;22;45385;-77
2021/10/25 12:29:57;;;;;;;;;19.25;17.75;;;;;;;;6265622;22;46836;-77
2021/10/25 12:32:31;;;;;;;;;16.75;10.50;;;;;;;;6267140;22;46252;-77
2021/10/25 12:34:57;;;;;;;;;14.25;14.00;;;;;;;;6237209;22;45653;-77
2021/10/25 12:37:31;;;;;;;;;18.00;14.00;;;;;;;;6239511;22;45683;-77
2021/10/25 12:39:57;;;;;;;;;18.25;13.00;;;;;;;;6264980;22;45322;-77
2021/10/25 12:42:23;;;;;;;;;15.50;14.00;;;;;;;;6265291;22;45733;-77
2021/10/25 12:44:53;;;;;;;;;15.75;13.50;;;;;;;;6265317;22;45446;-77
2021/10/25 12:47:25;;;;;;;;;15.00;14.00;;;;;;;;6266048;22;45709;-77
2021/10/25 12:49:57;;;;;;;;;15.00;12.25;;;;;;;;6264313;22;45529;-77
2021/10/25 12:52:29;;;;;;;;;15.25;12.75;;;;;;;;6266734;22;45645;-77
2021/10/25 12:54:58;;;;;;;;;13.50;11.00;;;;;;;;6239322;22;45654;-77
2021/10/25 12:57:28;;;;;;;;;24.50;24.25;;;;;;;;6266830;22;45458;-77
2021/10/25 12:59:58;;;;;;;;;15.25;14.00;;;;;;;;6266701;22;45415;-78
2021/10/25 13:02:24;;;;;;;;;56.25;42.50;;;;;;;;6239697;22;45578;-77
2021/10/25 13:04:49;;;;;;;;;28.75;24.75;;;;;;;;6266106;22;45760;-78
2021/10/25 13:07:37;;;;;;;;;19.33;18.67;;;;;;;;6278610;22;46250;-78
2021/10/25 13:10:07;;;;;;;;;25.00;20.00;;;;;;;;6249082;22;45625;-78
2021/10/25 13:17:45;;;;;;;;;40.50;30.50;;;;;;;;6323241;22;45525;-90
2021/10/25 13:20:13;;;;;;;;;24.50;23.50;;;;;;;;6331862;22;46373;-90
2021/10/25 13:22:38;;;;;;;;;26.25;21.25;;;;;;;;6330743;22;45836;-91
2021/10/25 13:25:04;;;;;;;;;21.00;18.25;;;;;;;;6332982;22;45445;-90
2021/10/25 13:27:29;;;;;;;;;31.25;25.75;;;;;;;;6331568;22;45426;-90
2021/10/25 13:29:55;;;;;;;;;18.33;17.00;;;;;;;;6330856;22;46139;-91
2021/10/25 13:32:21;;;;;;;;;14.50;14.00;;;;;;;;6303847;22;45443;-92
2021/10/25 13:37:22;;;;;;;;;17.00;14.50;;;;;;;;6303294;22;45886;-92
2021/10/25 13:48:18;;;;;;;;;20.50;15.50;;;;;;;;6052967;23;45517;-78
2021/10/25 13:50:43;;;;;;;;;20.50;16.75;;;;;;;;6036786;23;46231;-78
2021/10/25 14:01:36;;;;;;;;;13.00;11.50;;;;;;;;6287895;22;46798;-90
2021/10/25 14:04:01;;;;;;;;;16.00;12.00;;;;;;;;6306179;22;45368;-92
2021/10/25 14:06:29;;;;;;;;;15.00;12.00;;;;;;;;6305444;22;45498;-90
2021/10/25 14:08:55;;;;;;;;;16.50;13.50;;;;;;;;6331823;22;45241;-90
2021/10/25 14:11:23;;;;;;;;;15.00;14.25;;;;;;;;6304226;22;48079;-89
2021/10/25 14:18:44;;;;;;;;;14.50;12.75;;;;;;;;6301021;22;45442;-90
2021/10/25 14:21:13;;;;;;;;;11.25;10.25;;;;;;;;6272271;22;48394;-88
2021/10/25 14:23:38;;;;;;;;;15.00;11.00;;;;;;;;6271670;22;46014;-90
2021/10/25 14:26:04;;;;;;;;;17.67;11.67;;;;;;;;6297213;22;45360;-88
2021/10/25 14:28:30;;;;;;;;;14.33;13.00;;;;;;;;6269903;22;45417;-89
2021/10/25 14:30:56;;;;;;;;;13.25;11.50;;;;;;;;6295235;22;46222;-89
2021/10/25 14:33:21;;;;;;;;;11.75;11.75;;;;;;;;6296721;22;45447;-89
2021/10/25 14:35:46;;;;;;;;;15.00;10.00;;;;;;;;6300551;22;45400;-89
2021/10/25 14:38:16;;;;;;;;;17.00;15.67;;;;;;;;6269300;22;45508;-90
2021/10/25 14:40:52;;;;;;;;;14.25;12.75;;;;;;;;6297337;22;47142;-89
2021/10/25 14:56:20;;;;;;;;;11.75;11.25;;;;;;;;6249822;22;45510;-78
2021/10/25 14:58:49;;;;;;;;;15.00;13.00;;;;;;;;6250876;22;45446;-78
2021/10/25 15:17:58;;;;;;;;;;;;;;;;;;;;;
2021/10/25 15:23:29;;;;;;;;;11.00;9.00;;;;;;;;6139241;23;46112;-78
2021/10/25 15:31:06;;;;;;;;;13.25;11.75;;;;;;;;6271050;22;47157;-77
2021/10/25 15:33:31;;;;;;;;;11.25;10.00;;;;;;;;6263621;22;45439;-77
2021/10/25 15:35:58;;;;;;;;;10.50;9.50;;;;;;;;6266907;22;45417;-77
2021/10/25 15:38:24;;;;;;;;;16.25;13.50;;;;;;;;6269300;22;45316;-77
2021/10/25 15:40:49;;;;;;;;;10.00;10.00;;;;;;;;6264485;22;45565;-77
2021/10/25 15:43:15;;;;;;;;;13.25;10.00;;;;;;;;6267620;22;45494;-77
2021/10/25 15:45:41;;;;;;;;;12.75;12.50;;;;;;;;6264022;22;45402;-77
2021/10/25 15:48:38;;;;;;;;;14.00;12.00;;;;;;;;6294130;22;46188;-76
2021/10/25 15:57:36;;;;;;;;;15.25;11.75;;;;;;;;6308379;22;45592;-78
2021/10/25 16:00:03;;;;;;;;;14.25;12.25;;;;;;;;6330219;22;45358;-78
2021/10/25 16:02:31;;;;;;;;;10.00;8.50;;;;;;;;6329177;22;45645;-78
2021/10/25 16:08:18;;;;;;;;;11.00;11.00;;;;;;;;6156980;23;45865;-79
2021/10/25 16:10:52;;;;;;;;;12.25;10.25;;;;;;;;6169442;23;45272;-78
2021/10/25 16:13:17;;;;;;;;;12.50;10.50;;;;;;;;6170492;23;45431;-79
2021/10/25 16:15:55;;;;;;;;;;;;;;;;;;;;;
2021/10/25 16:18:23;;;;;;;;;11.00;10.75;;;;;;;;6168815;23;72653;-78
2021/10/25 16:20:49;;;;;;;;;12.00;11.50;;;;;;;;6170258;23;45828;-79
2021/10/25 16:23:14;;;;;;;;;13.00;11.00;;;;;;;;6170280;23;45472;-78
2021/10/25 16:25:40;;;;;;;;;11.00;10.00;;;;;;;;6170103;23;45454;-77
2021/10/25 16:28:05;;;;;;;;;11.50;10.75;;;;;;;;6169512;23;45839;-76
2021/10/25 16:30:30;;;;;;;;;11.00;10.50;;;;;;;;6170715;23;45772;-79
2021/10/25 16:33:08;;;;;;;;;;;;;;;;;;;;;
2021/10/25 16:35:43;;;;;;;;;12.25;10.75;;;;;;;;6168450;23;74293;-78
2021/10/25 16:38:17;;;;;;;;;11.25;9.25;;;;;;;;6168540;23;45471;-80
2021/10/25 16:40:44;;;;;;;;;15.00;9.75;;;;;;;;6170561;23;45385;-78
2021/10/25 16:43:31;;;;;;;;;11.50;9.00;;;;;;;;6329244;22;45859;-78
2021/10/25 16:46:04;;;;;;;;;9.25;9.25;;;;;;;;6327401;22;45702;-78
2021/10/25 16:48:39;;;;;;;;;15.75;10.75;;;;;;;;6327242;22;45476;-78
2021/10/25 17:03:03;;;;;;;;;10.75;8.75;;;;;;;;6331231;22;45358;-78
2021/10/25 17:05:41;;;;;;;;;13.75;10.25;;;;;;;;6332815;22;45436;-79
2021/10/25 17:11:07;;;;;;;;;10.25;9.75;;;;;;;;6328299;22;45433;-78
2021/10/25 17:13:34;;;;;;;;;11.00;10.00;;;;;;;;6331550;22;45630;-79
2021/10/25 17:16:00;;;;;;;;;11.75;9.00;;;;;;;;6329724;22;45655;-79
2021/10/25 17:18:26;;;;;;;;;12.25;9.75;;;;;;;;6329179;22;46240;-78
2021/10/25 17:20:51;;;;;;;;;11.25;10.50;;;;;;;;6329512;22;45514;-79
2021/10/25 17:23:19;;;;;;;;;12.00;10.25;;;;;;;;6330014;22;45436;-79
2021/10/25 17:25:45;;;;;;;;;8.50;8.50;;;;;;;;6300420;22;45562;-79
2021/10/25 17:28:11;;;;;;;;;11.25;11.25;;;;;;;;6330286;22;46371;-79
2021/10/25 17:30:44;;;;;;;;;11.50;10.50;;;;;;;;6299121;22;45641;-78
2021/10/25 17:33:12;;;;;;;;;12.00;11.00;;;;;;;;6330482;22;45170;-79
2021/10/25 17:36:12;;;;;;;;;14.50;11.00;;;;;;;;6303415;22;45744;-79
2021/10/25 17:38:38;;;;;;;;;11.25;9.50;;;;;;;;6172091;23;45615;-78
2021/10/25 17:41:09;;;;;;;;;18.75;14.00;;;;;;;;6171468;23;45389;-78
2021/10/25 17:43:46;;;;;;;;;19.25;13.25;;;;;;;;6147301;23;45572;-78
2021/10/25 17:46:14;;;;;;;;;15.00;10.00;;;;;;;;6172653;23;45991;-79
2021/10/25 17:48:50;;;;;;;;;15.75;14.25;;;;;;;;6172015;23;45433;-79
2021/10/25 17:51:15;;;;;;;;;15.50;11.50;;;;;;;;6175386;23;45420;-79
2021/10/25 17:53:43;;;;;;;;;16.00;15.00;;;;;;;;6175932;23;45753;-79
2021/10/25 17:59:01;;;;;;;;;15.50;14.00;;;;;;;;6171871;23;47246;-79
2021/10/25 18:01:27;;;;;;;;;17.25;14.00;;;;;;;;6174038;23;45633;-79
2021/10/25 18:03:52;;;;;;;;;18.00;15.00;;;;;;;;6169105;23;45604;-78
2021/10/25 18:06:57;;;;;;;;;15.00;13.25;;;;;;;;6144936;23;45696;-78
2021/10/25 18:09:29;;;;;;;;;21.25;12.50;;;;;;;;6168341;23;45632;-78
2021/10/25 18:12:15;;;;;;;;;14.75;14.75;;;;;;;;6145731;23;45649;-78
2021/10/25 18:14:40;;;;;;;;;15.25;11.00;;;;;;;;6280604;22;45465;-78
2021/10/25 18:17:06;;;;;;;;;13.50;12.25;;;;;;;;6326792;22;45743;-78
2021/10/25 18:19:36;;;;;;;;;17.00;15.25;;;;;;;;6328162;22;45441;-78
2021/10/25 18:22:01;;;;;;;;;17.25;14.75;;;;;;;;6327821;22;45805;-78
2021/10/25 18:24:26;;;;;;;;;15.75;14.75;;;;;;;;6327436;22;45367;-78
2021/10/25 18:27:03;;;;;;;;;13.75;13.00;;;;;;;;6327762;22;45500;-78
2021/10/25 18:29:28;;;;;;;;;19.00;15.75;;;;;;;;6325185;22;45882;-77
2021/10/25 18:32:06;;;;;;;;;13.67;11.33;;;;;;;;6325412;22;45521;-77
2021/10/25 18:34:59;;;;;;;;;18.25;13.50;;;;;;;;6299016;22;45472;-77
2021/10/25 18:37:27;;;;;;;;;15.75;15.75;;;;;;;;6169716;23;45843;-78
2021/10/25 18:40:06;;;;;;;;;16.25;13.50;;;;;;;;6170407;23;46140;-78
2021/10/25 18:42:31;;;;;;;;;18.50;15.00;;;;;;;;6143842;23;45948;-77
2021/10/25 18:44:56;;;;;;;;;17.00;14.67;;;;;;;;6170234;23;44916;-79
2021/10/25 18:47:59;;;;;;;;;15.00;11.33;;;;;;;;6170872;23;45504;-78
2021/10/25 18:50:25;;;;;;;;;17.00;16.25;;;;;;;;6165909;23;46295;-77
2021/10/25 18:53:10;;;;;;;;;14.50;12.75;;;;;;;;6169495;23;45480;-78
2021/10/25 18:55:44;;;;;;;;;14.50;13.50;;;;;;;;6170689;23;45549;-78
2021/10/25 18:58:10;;;;;;;;;17.00;11.25;;;;;;;;6170897;23;45390;-77
2021/10/25 19:00:44;;;;;;;;;20.75;15.25;;;;;;;;6168587;23;46001;-78
2021/10/25 19:03:10;;;;;;;;;17.75;15.50;;;;;;;;6170571;23;45522;-78
2021/10/25 19:05:36;;;;;;;;;18.75;14.50;;;;;;;;6169197;23;45557;-78
2021/10/25 19:08:01;;;;;;;;;15.50;12.25;;;;;;;;6169382;23;45515;-78
2021/10/25 19:10:28;;;;;;;;;18.25;13.00;;;;;;;;6171725;23;45899;-78
2021/10/25 19:12:57;;;;;;;;;14.00;11.25;;;;;;;;6200026;22;45888;-79
2021/10/25 19:18:13;;;;;;;;;49.25;38.25;;;;;;;;6312303;22;45551;-79
2021/10/25 19:20:39;;;;;;;;;30.50;25.25;;;;;;;;6327065;22;45446;-75
2021/10/25 19:23:05;;;;;;;;;20.25;15.25;;;;;;;;6326245;22;45716;-78
2021/10/25 19:25:30;;;;;;;;;18.50;16.50;;;;;;;;6327377;22;45614;-78
2021/10/25 19:27:55;;;;;;;;;20.25;16.75;;;;;;;;6326053;22;45505;-78
2021/10/25 19:30:21;;;;;;;;;17.33;15.33;;;;;;;;6297727;22;47450;-78
2021/10/25 19:32:46;;;;;;;;;19.75;16.75;;;;;;;;6328802;22;46071;-78
2021/10/25 19:35:15;;;;;;;;;22.00;18.75;;;;;;;;6327474;22;46056;-78
2021/10/25 19:37:41;;;;;;;;;16.00;16.00;;;;;;;;6300277;22;45578;-78
2021/10/25 19:40:28;;;;;;;;;22.25;19.25;;;;;;;;6325996;22;45355;-80
2021/10/25 19:42:53;;;;;;;;;23.25;17.00;;;;;;;;6326287;22;45642;-78
2021/10/25 19:45:19;;;;;;;;;20.33;17.33;;;;;;;;6326496;22;45437;-78
2021/10/25 19:47:45;;;;;;;;;19.00;14.50;;;;;;;;6329397;22;45508;-78
2021/10/25 19:50:12;;;;;;;;;26.00;19.00;;;;;;;;6325985;22;45473;-78
2021/10/25 19:52:38;;;;;;;;;16.50;15.75;;;;;;;;6327878;22;45441;-78
2021/10/25 19:55:04;;;;;;;;;19.75;18.00;;;;;;;;6326583;22;45612;-78
2021/10/25 19:57:30;;;;;;;;;26.50;20.75;;;;;;;;6327433;22;45491;-78
2021/10/25 19:59:55;;;;;;;;;24.75;21.75;;;;;;;;6327566;22;45531;-79
2021/10/25 20:02:21;;;;;;;;;19.50;18.25;;;;;;;;6329761;22;45458;-79
2021/10/25 20:04:46;;;;;;;;;23.00;17.75;;;;;;;;6333954;22;45876;-79
2021/10/25 20:07:11;;;;;;;;;19.75;18.25;;;;;;;;6331733;22;45541;-79
2021/10/25 20:09:37;;;;;;;;;23.75;20.00;;;;;;;;6326845;22;45350;-78
2021/10/25 20:12:02;;;;;;;;;21.50;15.75;;;;;;;;6328893;22;45452;-79
2021/10/25 20:14:33;;;;;;;;;18.50;15.75;;;;;;;;6330522;22;45623;-80
2021/10/25 20:16:58;;;;;;;;;18.50;16.25;;;;;;;;6326002;22;45712;-79
2021/10/25 20:19:24;;;;;;;;;19.00;17.25;;;;;;;;6330182;22;46418;-79
2021/10/25 20:21:57;;;;;;;;;20.50;14.25;;;;;;;;6330001;22;45424;-79
2021/10/25 20:24:25;;;;;;;;;17.75;16.75;;;;;;;;6299062;22;45481;-79
2021/10/25 20:26:51;;;;;;;;;18.00;16.75;;;;;;;;6330804;22;45462;-79
2021/10/25 20:29:17;;;;;;;;;17.50;13.25;;;;;;;;6327110;22;46055;-79